Time;durP1;ratioP1;P1;durP2;ratioP2;P2;SDS_P1;SDS_P2;PMS_P1;PMS_P2;Temp;Humidity;BMP_temperature;BMP_pressure;BME280_temperature;BME280_humidity;BME280_pressure;Samples;Min_cycle;Max_cycle;Signal;HPM_P1;HPM_P2
2023/11/14 00:00:22;;;;;;;14.23;13.33;;;12.00;99.90;;;;;;4864545;29;20209;-77
2023/11/14 00:02:49;;;;;;;14.00;13.00;;;11.90;99.90;;;;;;4865254;29;20220;-78
2023/11/14 00:05:16;;;;;;;13.90;13.00;;;11.90;99.90;;;;;;4865449;29;20209;-78
2023/11/14 00:07:44;;;;;;;14.33;13.13;;;11.80;99.90;;;;;;4863567;29;20702;-77
2023/11/14 00:10:12;;;;;;;13.40;12.40;;;11.70;99.90;;;;;;4864935;29;20574;-77
2023/11/14 00:12:39;;;;;;;14.00;13.07;;;11.60;99.90;;;;;;4863377;29;20201;-77
2023/11/14 00:15:07;;;;;;;14.07;13.17;;;11.60;99.90;;;;;;4865009;29;20202;-77
2023/11/14 00:17:35;;;;;;;14.87;13.77;;;11.60;99.90;;;;;;4860884;29;20241;-77
2023/11/14 00:20:03;;;;;;;14.97;14.07;;;11.60;99.90;;;;;;4862392;29;20208;-78
2023/11/14 00:22:30;;;;;;;15.20;14.00;;;11.50;99.90;;;;;;4864919;29;20311;-77
2023/11/14 00:24:58;;;;;;;15.20;14.10;;;11.50;99.90;;;;;;4863694;29;20704;-77
2023/11/14 00:27:25;;;;;;;15.10;14.00;;;11.50;99.90;;;;;;4864937;29;20300;-78
2023/11/14 00:29:51;;;;;;;15.57;14.47;;;11.50;99.90;;;;;;4863716;29;20589;-77
2023/11/14 00:32:19;;;;;;;15.57;14.47;;;11.40;99.90;;;;;;4863395;29;20230;-77
2023/11/14 00:34:48;;;;;;;15.70;14.47;;;11.40;99.90;;;;;;4863283;29;20203;-77
2023/11/14 00:37:15;;;;;;;15.20;14.20;;;11.50;99.90;;;;;;4862804;29;20224;-77
2023/11/14 00:39:42;;;;;;;15.60;14.33;;;11.50;99.90;;;;;;4863629;29;20271;-78
2023/11/14 00:42:12;;;;;;;14.97;14.07;;;11.40;99.90;;;;;;4863171;29;20208;-77
2023/11/14 00:44:39;;;;;;;12.43;11.63;;;11.50;99.90;;;;;;4863298;29;20216;-78
2023/11/14 00:47:06;;;;;;;10.97;10.27;;;11.40;99.90;;;;;;4862883;29;20220;-77
2023/11/14 00:49:33;;;;;;;13.23;12.43;;;11.40;99.90;;;;;;4864098;29;20215;-78
2023/11/14 00:52:00;;;;;;;14.37;13.53;;;11.40;99.90;;;;;;4863205;29;20391;-77
2023/11/14 00:54:27;;;;;;;7.13;6.50;;;11.40;99.90;;;;;;4863410;29;20205;-77
2023/11/14 00:56:54;;;;;;;7.10;6.50;;;11.40;99.90;;;;;;4865058;29;20252;-78
2023/11/14 00:59:23;;;;;;;6.80;6.20;;;11.40;99.90;;;;;;4864509;29;20280;-78
2023/11/14 01:01:50;;;;;;;10.33;9.67;;;11.40;99.90;;;;;;4863984;29;20202;-77
2023/11/14 01:04:18;;;;;;;8.40;7.90;;;11.40;99.90;;;;;;4863023;29;20307;-77
2023/11/14 01:06:45;;;;;;;11.63;10.93;;;11.40;99.90;;;;;;4863175;29;20263;-77
2023/11/14 01:09:13;;;;;;;8.83;8.27;;;11.40;99.90;;;;;;4859632;29;20233;-78
2023/11/14 01:11:40;;;;;;;10.93;10.23;;;11.40;99.90;;;;;;4863589;29;20204;-78
2023/11/14 01:14:07;;;;;;;8.90;8.30;;;11.40;99.90;;;;;;4864935;29;20202;-77
2023/11/14 01:16:35;;;;;;;8.03;7.53;;;11.40;99.90;;;;;;4863151;29;20226;-77
2023/11/14 01:19:02;;;;;;;7.43;6.83;;;11.40;99.90;;;;;;4865125;29;20284;-77
2023/11/14 01:21:31;;;;;;;14.57;13.60;;;11.40;99.90;;;;;;4863545;29;20610;-77
2023/11/14 01:23:58;;;;;;;14.43;13.63;;;11.40;99.90;;;;;;4862927;29;20315;-78
2023/11/14 01:26:25;;;;;;;14.57;13.67;;;11.40;99.90;;;;;;4859684;29;20243;-78
2023/11/14 01:28:52;;;;;;;12.73;11.93;;;11.40;99.90;;;;;;4862908;29;20235;-78
2023/11/14 01:31:21;;;;;;;15.00;14.10;;;11.40;99.90;;;;;;4864495;29;20230;-78
2023/11/14 01:33:49;;;;;;;12.27;11.30;;;11.40;99.90;;;;;;4858482;29;20248;-78
2023/11/14 01:36:16;;;;;;;9.00;8.20;;;11.40;99.90;;;;;;4863162;29;20240;-77
2023/11/14 01:38:42;;;;;;;7.90;7.20;;;11.40;99.90;;;;;;4864939;29;20725;-77
2023/11/14 01:41:09;;;;;;;9.67;8.77;;;11.40;99.90;;;;;;4867079;29;20222;-77
2023/11/14 01:43:43;;;;;;;9.00;8.30;;;11.40;99.90;;;;;;4867691;29;20239;-78
2023/11/14 01:46:10;;;;;;;8.97;8.27;;;11.40;99.90;;;;;;4868790;29;20215;-78
2023/11/14 01:48:37;;;;;;;11.63;10.80;;;11.40;99.90;;;;;;4866953;29;20199;-77
2023/11/14 01:51:07;;;;;;;12.90;11.87;;;11.40;99.90;;;;;;4867878;29;20208;-78
2023/11/14 01:53:34;;;;;;;12.57;11.67;;;11.40;99.90;;;;;;4875045;29;20198;-77
2023/11/14 01:56:01;;;;;;;13.47;12.47;;;11.40;99.90;;;;;;4866155;29;20200;-78
2023/11/14 01:58:29;;;;;;;12.73;11.57;;;11.40;99.90;;;;;;4863815;29;20236;-78
2023/11/14 02:00:56;;;;;;;16.17;14.90;;;11.40;99.90;;;;;;4866176;29;20220;-78
2023/11/14 02:03:22;;;;;;;15.50;14.30;;;11.40;99.90;;;;;;4865875;29;20297;-78
2023/11/14 02:05:49;;;;;;;14.47;13.47;;;11.40;99.90;;;;;;4866468;29;20256;-77
2023/11/14 02:08:18;;;;;;;15.03;13.83;;;11.40;99.90;;;;;;4866213;29;20791;-78
2023/11/14 02:10:45;;;;;;;14.33;13.43;;;11.40;99.90;;;;;;4866053;29;20205;-77
2023/11/14 02:13:12;;;;;;;14.53;13.57;;;11.40;99.90;;;;;;4865438;29;20209;-77
2023/11/14 02:15:39;;;;;;;14.13;13.23;;;11.40;99.90;;;;;;4866121;29;20234;-77
2023/11/14 02:18:08;;;;;;;13.73;12.93;;;11.40;99.90;;;;;;4866020;29;20233;-78
2023/11/14 02:20:35;;;;;;;15.20;14.00;;;11.30;99.90;;;;;;4866038;29;20210;-78
2023/11/14 02:23:05;;;;;;;14.33;13.47;;;11.30;99.90;;;;;;4861947;29;20737;-77
2023/11/14 02:25:34;;;;;;;15.30;14.20;;;11.30;99.90;;;;;;4858831;29;20215;-78
2023/11/14 02:28:01;;;;;;;14.83;13.93;;;11.30;99.90;;;;;;4866712;29;20260;-77
2023/11/14 02:30:28;;;;;;;14.90;13.90;;;11.30;99.90;;;;;;4865261;29;20209;-77
2023/11/14 02:32:56;;;;;;;14.30;13.30;;;11.30;99.90;;;;;;4866069;29;20247;-78
2023/11/14 02:35:23;;;;;;;14.50;13.50;;;11.30;99.90;;;;;;4858369;29;20216;-78
2023/11/14 02:37:50;;;;;;;13.97;13.00;;;11.20;99.90;;;;;;4864660;29;20227;-77
2023/11/14 02:40:17;;;;;;;13.50;12.80;;;11.20;99.90;;;;;;4866193;29;20272;-77
2023/11/14 02:42:45;;;;;;;14.17;13.17;;;11.20;99.90;;;;;;4866238;29;20199;-78
2023/11/14 02:45:12;;;;;;;14.87;13.97;;;11.20;99.90;;;;;;4864830;29;20396;-77
2023/11/14 02:47:40;;;;;;;14.03;13.13;;;11.20;99.90;;;;;;4866503;29;20306;-77
2023/11/14 02:50:33;;;;;;;13.50;12.70;;;11.20;99.90;;;;;;4865042;29;20222;-77
2023/11/14 02:52:59;;;;;;;13.80;12.80;;;11.10;99.90;;;;;;4861048;29;20631;-77
2023/11/14 02:55:26;;;;;;;13.63;12.87;;;11.10;99.90;;;;;;4864830;29;20311;-78
2023/11/14 02:57:54;;;;;;;14.10;13.10;;;11.10;99.90;;;;;;4864433;29;20228;-77
2023/11/14 03:00:21;;;;;;;14.07;13.17;;;11.10;99.90;;;;;;4865774;29;20232;-77
2023/11/14 03:02:49;;;;;;;14.47;13.50;;;11.00;99.90;;;;;;4865230;29;20581;-77
2023/11/14 03:05:17;;;;;;;13.77;12.87;;;11.00;99.90;;;;;;4862466;29;20205;-78
2023/11/14 03:07:44;;;;;;;14.33;13.40;;;10.90;99.90;;;;;;4865676;29;20310;-77
2023/11/14 03:10:11;;;;;;;13.80;13.00;;;10.90;99.90;;;;;;4861740;29;20729;-77
2023/11/14 03:12:39;;;;;;;13.53;12.73;;;10.80;99.90;;;;;;4865774;29;20647;-77
2023/11/14 03:15:08;;;;;;;14.07;13.00;;;10.80;99.90;;;;;;4865859;29;20227;-77
2023/11/14 03:17:35;;;;;;;14.70;13.70;;;10.80;99.90;;;;;;4864221;29;20718;-77
2023/11/14 03:20:02;;;;;;;13.30;12.50;;;10.80;99.90;;;;;;4864538;29;20205;-78
2023/11/14 03:22:29;;;;;;;13.63;12.53;;;10.80;99.90;;;;;;4863950;29;20284;-77
2023/11/14 03:24:56;;;;;;;12.90;12.10;;;10.80;99.90;;;;;;4865596;29;20220;-78
2023/11/14 03:27:23;;;;;;;8.27;7.67;;;10.80;99.90;;;;;;4864078;29;20258;-77
2023/11/14 03:29:50;;;;;;;8.67;7.90;;;10.90;99.90;;;;;;4863779;29;20259;-77
2023/11/14 03:32:18;;;;;;;10.30;9.60;;;10.90;99.90;;;;;;4863557;29;20210;-77
2023/11/14 03:34:45;;;;;;;12.40;11.60;;;10.80;99.90;;;;;;4863967;29;20223;-77
2023/11/14 03:37:12;;;;;;;13.43;12.63;;;10.90;99.90;;;;;;4863933;29;20227;-77
2023/11/14 03:39:41;;;;;;;14.17;13.20;;;10.90;99.90;;;;;;4864911;29;20216;-77
2023/11/14 03:42:08;;;;;;;14.37;13.20;;;10.90;99.90;;;;;;4865437;29;20199;-77
2023/11/14 03:44:35;;;;;;;14.20;13.30;;;10.90;99.90;;;;;;4862383;29;20258;-77
2023/11/14 03:47:02;;;;;;;13.67;12.70;;;10.90;99.90;;;;;;4863483;29;20288;-77
2023/11/14 03:49:30;;;;;;;14.03;13.20;;;10.90;99.90;;;;;;4862176;29;20581;-75
2023/11/14 03:51:58;;;;;;;13.00;12.20;;;10.90;99.90;;;;;;4857110;29;20195;-79
2023/11/14 03:54:26;;;;;;;9.37;8.77;;;10.90;99.90;;;;;;4862098;29;20208;-79
2023/11/14 03:56:52;;;;;;;8.33;7.83;;;10.90;99.90;;;;;;4853629;29;20224;-79
2023/11/14 03:59:20;;;;;;;9.17;8.53;;;10.90;99.90;;;;;;4861207;29;20615;-80
2023/11/14 04:01:46;;;;;;;9.00;8.40;;;10.90;99.90;;;;;;4861976;29;20217;-80
2023/11/14 04:04:13;;;;;;;9.50;8.90;;;10.90;99.90;;;;;;4862233;29;20221;-80
2023/11/14 04:06:42;;;;;;;10.17;9.27;;;10.90;99.90;;;;;;4874521;29;20662;-79
2023/11/14 04:09:10;;;;;;;9.07;8.47;;;10.90;99.90;;;;;;4874131;29;20295;-80
2023/11/14 04:11:45;;;;;;;9.27;8.67;;;10.80;99.90;;;;;;4863201;29;20696;-78
2023/11/14 04:14:11;;;;;;;9.57;8.83;;;10.80;99.90;;;;;;4862504;29;20580;-79
2023/11/14 04:16:38;;;;;;;9.30;8.70;;;10.80;99.90;;;;;;4862035;29;20258;-79
2023/11/14 04:19:05;;;;;;;10.97;10.13;;;10.70;99.90;;;;;;4863248;29;20254;-79
2023/11/14 04:21:33;;;;;;;10.90;10.10;;;10.70;99.90;;;;;;4861887;29;20199;-80
2023/11/14 04:24:01;;;;;;;11.40;10.60;;;10.70;99.90;;;;;;4861690;29;20238;-79
2023/11/14 04:26:29;;;;;;;10.90;10.17;;;10.70;99.90;;;;;;4860866;29;20294;-79
2023/11/14 04:28:57;;;;;;;12.00;11.10;;;10.60;99.90;;;;;;4855163;29;20210;-81
2023/11/14 04:31:24;;;;;;;11.47;10.77;;;10.60;99.90;;;;;;4860678;29;20215;-79
2023/11/14 04:33:51;;;;;;;11.27;10.47;;;10.60;99.90;;;;;;4861320;29;20218;-79
2023/11/14 04:36:19;;;;;;;11.23;10.43;;;10.60;99.90;;;;;;4860370;29;20227;-81
2023/11/14 04:38:46;;;;;;;11.60;10.90;;;10.60;99.90;;;;;;4861001;29;20219;-82
2023/11/14 04:41:18;;;;;;;6.93;6.43;;;10.50;99.90;;;;;;4858130;29;20215;-81
2023/11/14 04:43:45;;;;;;;4.60;4.10;;;10.50;99.90;;;;;;4861532;29;20215;-80
2023/11/14 04:46:13;;;;;;;4.67;4.20;;;10.50;99.90;;;;;;4862513;29;20202;-81
2023/11/14 04:48:43;;;;;;;4.77;3.97;;;10.50;99.90;;;;;;4873111;29;20271;-81
2023/11/14 04:51:10;;;;;;;4.43;4.13;;;10.50;99.90;;;;;;4861550;29;20302;-81
2023/11/14 04:53:37;;;;;;;4.27;3.70;;;10.50;99.90;;;;;;4861508;29;20645;-80
2023/11/14 04:56:04;;;;;;;10.87;10.27;;;10.50;99.90;;;;;;4861768;29;20202;-84
2023/11/14 04:58:32;;;;;;;5.83;5.33;;;10.50;99.90;;;;;;4863646;29;20633;-81
2023/11/14 05:01:00;;;;;;;4.37;4.07;;;10.50;99.90;;;;;;4865764;29;20214;-80
2023/11/14 05:03:26;;;;;;;4.50;4.10;;;10.50;99.90;;;;;;4862491;29;20202;-79
2023/11/14 05:05:53;;;;;;;4.00;3.80;;;10.50;99.90;;;;;;4862470;29;20269;-80
2023/11/14 05:08:20;;;;;;;4.03;3.70;;;10.50;99.90;;;;;;4862992;29;20226;-81
2023/11/14 05:10:47;;;;;;;4.20;4.00;;;10.50;99.90;;;;;;4864936;29;20207;-80
2023/11/14 05:13:14;;;;;;;4.10;3.80;;;10.50;99.90;;;;;;4862522;29;20236;-81
2023/11/14 05:15:42;;;;;;;3.80;3.60;;;10.50;99.90;;;;;;4868362;29;20277;-81
2023/11/14 05:18:09;;;;;;;4.00;3.77;;;10.50;99.90;;;;;;4867436;29;20222;-80
2023/11/14 05:20:36;;;;;;;4.20;3.90;;;10.50;99.90;;;;;;4865504;29;20211;-81
2023/11/14 05:23:03;;;;;;;4.37;3.97;;;10.50;99.90;;;;;;4866076;29;20764;-81
2023/11/14 05:25:30;;;;;;;3.80;3.60;;;10.50;99.90;;;;;;4866955;29;20236;-81
2023/11/14 05:27:57;;;;;;;5.97;5.63;;;10.50;99.90;;;;;;4865699;29;20368;-81
2023/11/14 05:30:25;;;;;;;5.73;5.43;;;10.50;99.90;;;;;;4866089;29;20242;-80
2023/11/14 05:32:53;;;;;;;4.73;4.43;;;10.50;99.90;;;;;;4868265;29;20205;-81
2023/11/14 05:35:20;;;;;;;4.30;4.07;;;10.50;99.90;;;;;;4865236;29;20640;-82
2023/11/14 05:37:47;;;;;;;4.03;3.83;;;10.40;99.90;;;;;;4865322;29;20254;-82
2023/11/14 05:40:14;;;;;;;4.83;4.53;;;10.40;99.90;;;;;;4866816;29;20692;-82
2023/11/14 05:42:41;;;;;;;4.80;4.50;;;10.40;99.90;;;;;;4865845;29;20211;-82
2023/11/14 05:45:10;;;;;;;4.57;4.37;;;10.40;99.90;;;;;;4865886;29;20781;-82
2023/11/14 05:47:37;;;;;;;4.40;4.20;;;10.40;99.90;;;;;;4866674;29;20647;-81
2023/11/14 05:50:07;;;;;;;5.13;4.83;;;10.40;99.90;;;;;;4866613;29;20594;-82
2023/11/14 05:52:34;;;;;;;4.50;4.30;;;10.40;99.90;;;;;;4866632;29;20202;-82
2023/11/14 05:55:01;;;;;;;4.73;4.43;;;10.40;99.90;;;;;;4866047;29;20233;-81
2023/11/14 05:57:27;;;;;;;4.53;4.23;;;10.30;99.90;;;;;;4865637;29;20734;-77
2023/11/14 05:59:55;;;;;;;4.50;4.20;;;10.40;99.90;;;;;;4869617;29;20203;-78
2023/11/14 06:02:22;;;;;;;4.43;4.20;;;10.30;99.90;;;;;;4869385;29;20290;-78
2023/11/14 06:04:49;;;;;;;4.60;4.30;;;10.30;99.90;;;;;;4868658;29;20306;-77
2023/11/14 06:07:18;;;;;;;4.63;4.33;;;10.20;99.90;;;;;;4868804;29;20242;-78
2023/11/14 06:09:45;;;;;;;4.60;4.20;;;10.20;99.90;;;;;;4867676;29;20254;-78
2023/11/14 06:12:12;;;;;;;4.57;4.27;;;10.20;99.90;;;;;;4867607;29;20203;-78
2023/11/14 06:14:39;;;;;;;4.50;4.20;;;10.20;99.90;;;;;;4866802;29;20206;-78
2023/11/14 06:17:08;;;;;;;4.93;4.53;;;10.10;99.90;;;;;;4864010;29;20249;-78
2023/11/14 06:19:36;;;;;;;5.37;4.90;;;10.10;99.90;;;;;;4870685;29;20267;-80
2023/11/14 06:22:04;;;;;;;4.97;4.67;;;10.10;99.90;;;;;;4862242;29;20213;-79
2023/11/14 06:24:32;;;;;;;5.27;4.83;;;10.10;99.90;;;;;;4859201;29;20218;-80
2023/11/14 06:26:59;;;;;;;6.13;4.97;;;10.00;99.90;;;;;;4856397;29;20302;-79
2023/11/14 06:29:26;;;;;;;5.43;5.10;;;10.00;99.90;;;;;;4862216;29;20259;-80
2023/11/14 06:31:52;;;;;;;6.10;5.53;;;10.00;99.90;;;;;;4862653;29;20231;-77
2023/11/14 06:34:21;;;;;;;6.50;6.10;;;9.90;99.90;;;;;;4865796;29;20257;-78
2023/11/14 06:36:48;;;;;;;7.70;7.30;;;9.90;99.90;;;;;;4864577;29;20218;-77
2023/11/14 06:39:16;;;;;;;6.57;6.17;;;9.90;99.90;;;;;;4865479;29;20202;-77
2023/11/14 06:41:50;;;;;;;6.37;5.83;;;9.90;99.90;;;;;;4864111;29;20220;-77
2023/11/14 06:44:18;;;;;;;5.50;5.00;;;9.90;99.90;;;;;;4884599;29;20226;-78
2023/11/14 06:46:46;;;;;;;5.90;5.40;;;9.90;99.90;;;;;;4866227;29;20222;-77
2023/11/14 06:49:13;;;;;;;4.00;3.70;;;9.90;99.90;;;;;;4866321;29;20616;-77
2023/11/14 06:51:40;;;;;;;4.73;3.80;;;9.90;99.90;;;;;;4867969;29;20205;-79
2023/11/14 06:54:07;;;;;;;4.00;3.70;;;10.00;99.90;;;;;;4870622;29;20217;-79
2023/11/14 06:56:34;;;;;;;4.83;4.10;;;10.00;99.90;;;;;;4870207;29;20232;-79
2023/11/14 06:59:02;;;;;;;4.40;4.03;;;10.00;99.90;;;;;;4871591;29;20202;-78
2023/11/14 07:01:29;;;;;;;4.73;3.80;;;10.00;99.90;;;;;;4866909;29;20210;-84
2023/11/14 07:03:56;;;;;;;4.57;4.17;;;10.00;99.90;;;;;;4865151;29;20211;-84
2023/11/14 07:06:24;;;;;;;7.53;4.23;;;10.00;99.90;;;;;;4871251;29;20290;-83
2023/11/14 07:08:53;;;;;;;3.87;3.50;;;10.10;99.90;;;;;;4870316;29;20610;-85
2023/11/14 07:11:19;;;;;;;4.10;3.80;;;10.10;99.90;;;;;;4867808;29;20235;-85
2023/11/14 07:13:46;;;;;;;4.00;3.70;;;10.10;99.90;;;;;;4873844;29;20210;-85
2023/11/14 07:16:15;;;;;;;4.13;3.63;;;10.10;99.90;;;;;;4870840;29;20738;-84
2023/11/14 07:18:42;;;;;;;3.70;3.40;;;10.20;99.90;;;;;;4874010;29;20236;-84
2023/11/14 07:21:09;;;;;;;4.13;3.70;;;10.20;99.90;;;;;;4868852;29;20267;-87
2023/11/14 07:23:36;;;;;;;3.90;3.60;;;10.30;99.90;;;;;;4866283;29;20218;-86
2023/11/14 07:26:04;;;;;;;4.13;3.80;;;10.30;99.90;;;;;;4864284;29;20233;-86
2023/11/14 07:28:33;;;;;;;4.10;3.80;;;10.30;99.90;;;;;;4864098;29;20306;-85
2023/11/14 07:31:00;;;;;;;4.10;3.70;;;10.30;99.90;;;;;;4879747;29;20295;-85
2023/11/14 07:33:28;;;;;;;3.73;3.47;;;10.30;99.90;;;;;;4863857;29;20214;-86
2023/11/14 07:35:56;;;;;;;4.50;4.17;;;10.30;99.90;;;;;;4863751;29;20759;-81
2023/11/14 07:38:23;;;;;;;3.53;3.30;;;10.40;99.90;;;;;;4864329;29;20298;-86
2023/11/14 07:40:50;;;;;;;3.70;3.50;;;10.50;99.90;;;;;;4863916;29;20219;-85
2023/11/14 07:43:23;;;;;;;3.97;3.10;;;10.60;99.90;;;;;;4863493;29;20302;-82
2023/11/14 07:45:50;;;;;;;4.73;3.73;;;10.60;99.90;;;;;;4863490;29;20238;-84
2023/11/14 07:48:17;;;;;;;4.37;3.77;;;10.60;99.90;;;;;;4865807;29;20235;-86
2023/11/14 07:50:46;;;;;;;4.33;3.13;;;10.70;99.90;;;;;;4863445;29;20208;-81
2023/11/14 07:53:13;;;;;;;3.40;3.10;;;10.70;99.90;;;;;;4864924;29;20304;-80
2023/11/14 07:55:40;;;;;;;3.40;3.20;;;10.70;99.90;;;;;;4863439;29;20207;-80
2023/11/14 07:58:08;;;;;;;3.53;3.10;;;10.70;99.90;;;;;;4864917;29;20765;-80
2023/11/14 08:00:35;;;;;;;3.27;2.97;;;10.70;99.90;;;;;;4863807;29;20222;-80
2023/11/14 08:03:02;;;;;;;3.53;3.20;;;10.70;99.90;;;;;;4865221;29;20543;-79
2023/11/14 08:05:32;;;;;;;3.60;3.30;;;10.70;99.90;;;;;;4863411;29;20286;-79
2023/11/14 08:08:00;;;;;;;3.17;2.97;;;10.70;99.90;;;;;;4863415;29;20777;-79
2023/11/14 08:10:26;;;;;;;3.70;3.40;;;10.70;99.90;;;;;;4864907;29;20702;-78
2023/11/14 08:12:53;;;;;;;3.13;2.90;;;10.70;99.90;;;;;;4863012;29;20213;-79
2023/11/14 08:15:21;;;;;;;3.20;3.00;;;10.70;99.90;;;;;;4865049;29;20210;-79
2023/11/14 08:17:48;;;;;;;3.00;2.80;;;10.70;99.90;;;;;;4864574;29;20230;-79
2023/11/14 08:20:15;;;;;;;3.40;3.20;;;10.70;99.90;;;;;;4863951;29;20239;-80
2023/11/14 08:22:42;;;;;;;3.30;3.00;;;10.70;99.90;;;;;;4863849;29;20199;-85
2023/11/14 08:25:10;;;;;;;3.00;2.80;;;10.70;99.90;;;;;;4862154;29;20241;-85
2023/11/14 08:27:37;;;;;;;5.03;2.97;;;10.70;99.90;;;;;;4870853;29;20235;-85
2023/11/14 08:30:06;;;;;;;2.83;2.70;;;10.70;99.90;;;;;;4863302;29;20263;-84
2023/11/14 08:32:33;;;;;;;5.10;3.07;;;10.70;99.90;;;;;;4862905;29;20211;-84
2023/11/14 08:35:03;;;;;;;3.43;3.13;;;10.80;99.90;;;;;;4862641;29;20684;-82
2023/11/14 08:37:30;;;;;;;3.23;3.00;;;10.80;99.90;;;;;;4865238;29;20254;-81
2023/11/14 08:39:57;;;;;;;2.70;2.60;;;10.90;99.90;;;;;;4864712;29;20204;-81
2023/11/14 08:42:26;;;;;;;3.17;2.97;;;10.90;99.90;;;;;;4865990;29;20212;-81
2023/11/14 08:44:53;;;;;;;3.30;3.10;;;10.90;99.90;;;;;;4866324;29;20231;-80
2023/11/14 08:47:20;;;;;;;3.40;3.20;;;10.90;99.90;;;;;;4868718;29;20223;-81
2023/11/14 08:49:46;;;;;;;4.17;3.10;;;10.90;99.90;;;;;;4867888;29;20259;-81
2023/11/14 08:52:13;;;;;;;3.47;3.13;;;10.90;99.90;;;;;;4867704;29;20261;-80
2023/11/14 08:54:40;;;;;;;3.53;3.23;;;10.90;99.90;;;;;;4866843;29;20233;-79
2023/11/14 08:57:07;;;;;;;3.30;3.00;;;10.80;99.90;;;;;;4863541;29;20279;-78
2023/11/14 08:59:35;;;;;;;3.47;3.10;;;10.80;99.90;;;;;;4864480;29;20196;-81
2023/11/14 09:02:03;;;;;;;3.17;2.90;;;10.80;99.90;;;;;;4865115;29;20211;-81
2023/11/14 09:04:30;;;;;;;3.00;2.80;;;10.70;99.90;;;;;;4862495;29;20211;-85
2023/11/14 09:06:57;;;;;;;3.40;3.10;;;10.80;99.90;;;;;;4863458;29;20861;-85
2023/11/14 09:09:24;;;;;;;3.20;2.90;;;10.80;99.90;;;;;;4864180;29;20267;-86
2023/11/14 09:11:51;;;;;;;3.30;3.00;;;10.90;99.90;;;;;;4864394;29;20218;-86
2023/11/14 09:14:18;;;;;;;3.10;2.90;;;11.10;99.90;;;;;;4864564;29;20211;-86
2023/11/14 09:16:46;;;;;;;2.60;2.50;;;11.20;99.90;;;;;;4863826;29;20249;-85
2023/11/14 09:19:13;;;;;;;3.00;2.80;;;11.20;99.90;;;;;;4861512;29;20204;-80
2023/11/14 09:21:40;;;;;;;3.43;3.13;;;11.30;99.90;;;;;;4858197;29;20215;-84
2023/11/14 09:24:10;;;;;;;3.00;2.80;;;11.30;99.90;;;;;;4857660;29;20201;-80
2023/11/14 09:26:37;;;;;;;2.87;2.67;;;11.30;99.90;;;;;;4862439;29;20333;-79
2023/11/14 09:29:04;;;;;;;3.00;2.80;;;11.30;99.90;;;;;;4862621;29;20203;-81
2023/11/14 09:31:30;;;;;;;4.27;2.93;;;11.30;99.90;;;;;;4859955;29;20208;-80
2023/11/14 09:33:58;;;;;;;3.20;2.90;;;11.40;99.90;;;;;;4855651;29;20265;-80
2023/11/14 09:36:26;;;;;;;3.70;3.00;;;11.30;99.90;;;;;;4859827;29;20217;-80
2023/11/14 09:38:53;;;;;;;2.70;2.50;;;11.40;99.90;;;;;;4860727;29;20209;-81
2023/11/14 09:41:20;;;;;;;3.20;2.90;;;11.50;99.90;;;;;;4858295;29;20222;-78
2023/11/14 09:43:47;;;;;;;2.73;2.53;;;11.50;99.90;;;;;;4862446;29;20743;-82
2023/11/14 09:46:15;;;;;;;3.20;2.90;;;11.60;99.90;;;;;;4861985;29;20224;-83
2023/11/14 09:48:43;;;;;;;2.67;2.50;;;11.60;99.90;;;;;;4862275;29;20301;-83
2023/11/14 09:51:12;;;;;;;2.97;2.77;;;11.60;99.90;;;;;;4863340;29;20209;-84
2023/11/14 09:53:41;;;;;;;3.00;2.70;;;11.70;99.90;;;;;;4862092;29;20204;-83
2023/11/14 09:56:09;;;;;;;4.37;2.77;;;11.60;99.90;;;;;;4862386;29;20200;-83
2023/11/14 09:58:35;;;;;;;2.87;2.67;;;11.60;99.90;;;;;;4857026;29;20238;-83
2023/11/14 10:01:03;;;;;;;3.30;2.90;;;11.70;99.90;;;;;;4864607;29;20217;-83
2023/11/14 10:03:31;;;;;;;4.40;2.90;;;11.70;99.90;;;;;;4866641;29;20241;-85
2023/11/14 10:05:58;;;;;;;2.90;2.70;;;11.70;99.90;;;;;;4867867;29;20243;-84
2023/11/14 10:08:28;;;;;;;3.33;2.87;;;11.60;99.90;;;;;;4874239;29;20209;-84
2023/11/14 10:11:06;;;;;;;2.80;2.60;;;11.70;99.90;;;;;;4874069;29;20205;-82
2023/11/14 10:13:33;;;;;;;3.70;2.90;;;11.70;99.90;;;;;;4868323;29;20261;-83
2023/11/14 10:16:25;;;;;;;4.13;2.90;;;11.80;99.90;;;;;;4875332;29;20196;-84
2023/11/14 10:45:43;;;;;;;5.33;4.90;;;11.90;99.90;;;;;;4863344;29;20192;-84
2023/11/14 11:06:11;;;;;;;;;;;;;;;;;;;;;
2023/11/14 12:01:10;;;;;;;3.90;3.00;;;12.40;99.90;;;;;;4698555;30;20786;-83
2023/11/14 12:04:11;;;;;;;4.27;3.13;;;12.30;99.90;;;;;;4714256;30;20268;-80
2023/11/14 12:07:26;;;;;;;4.43;3.43;;;12.20;99.90;;;;;;4722181;30;20230;-81
2023/11/14 12:14:06;;;;;;;3.47;3.13;;;12.10;99.90;;;;;;4809164;29;20205;-83
2023/11/14 12:17:29;;;;;;;;;;;;;;;;;;;;;
2023/11/14 12:20:55;;;;;;;3.37;3.00;;;12.10;99.90;;;;;;4878826;29;20259;-83
2023/11/14 12:23:48;;;;;;;3.23;2.97;;;12.10;99.90;;;;;;4864135;29;20285;-83
2023/11/14 12:26:37;;;;;;;3.23;2.97;;;12.20;99.90;;;;;;4868412;29;20230;-84
2023/11/14 12:29:28;;;;;;;5.27;3.40;;;12.30;99.90;;;;;;4856061;29;20293;-84
2023/11/14 12:32:21;;;;;;;5.47;3.30;;;12.30;99.90;;;;;;4865799;29;20268;-84
2023/11/14 12:35:14;;;;;;;3.30;3.00;;;12.30;99.90;;;;;;4868168;29;20220;-83
2023/11/14 12:38:04;;;;;;;5.07;3.30;;;12.30;99.90;;;;;;4861474;29;20252;-84
2023/11/14 12:44:28;;;;;;;4.53;3.43;;;12.30;99.90;;;;;;4785403;29;20216;-84
2023/11/14 12:47:12;;;;;;;3.90;3.27;;;12.30;99.90;;;;;;4931583;23;20289;-84
2023/11/14 12:49:54;;;;;;;3.70;3.10;;;12.20;99.90;;;;;;4893677;29;20410;-83
2023/11/14 12:59:20;;;;;;;4.53;3.20;;;12.30;99.90;;;;;;5125146;23;20245;-83
2023/11/14 13:01:52;;;;;;;5.30;3.67;;;12.30;99.90;;;;;;4896764;29;20221;-81
2023/11/14 13:05:26;;;;;;;5.57;3.70;;;12.20;99.90;;;;;;4901880;29;20212;-83
2023/11/14 13:10:38;;;;;;;3.80;3.50;;;12.20;99.90;;;;;;5024465;23;20257;-81
2023/11/14 13:13:05;;;;;;;3.77;3.47;;;12.10;99.90;;;;;;4889496;29;20299;-80
2023/11/14 13:15:33;;;;;;;5.33;3.73;;;12.10;99.90;;;;;;4881924;29;20211;-80
2023/11/14 13:18:03;;;;;;;3.80;3.50;;;12.10;99.90;;;;;;4875400;29;20224;-80
2023/11/14 13:20:31;;;;;;;5.07;3.47;;;12.10;99.90;;;;;;4869208;29;20200;-80
2023/11/14 13:22:58;;;;;;;4.73;3.50;;;12.10;99.90;;;;;;4878068;29;20203;-80
2023/11/14 13:25:25;;;;;;;4.30;3.27;;;12.10;99.90;;;;;;4873973;29;20303;-79
2023/11/14 13:27:52;;;;;;;3.60;3.30;;;12.10;99.90;;;;;;4871927;29;20220;-80
2023/11/14 13:30:19;;;;;;;3.60;3.30;;;12.10;99.90;;;;;;4877451;29;20212;-80
2023/11/14 13:32:47;;;;;;;3.97;3.30;;;12.10;99.90;;;;;;4867070;29;20211;-80
2023/11/14 13:35:14;;;;;;;3.87;3.10;;;12.10;99.90;;;;;;4864699;29;20201;-80
2023/11/14 13:37:41;;;;;;;5.13;3.40;;;12.10;99.90;;;;;;4876657;29;20226;-80
2023/11/14 13:40:11;;;;;;;5.03;3.40;;;12.10;99.90;;;;;;4866386;29;20205;-80
2023/11/14 13:42:38;;;;;;;3.83;3.43;;;12.00;99.90;;;;;;4865422;29;20691;-80
2023/11/14 13:45:06;;;;;;;6.97;4.00;;;12.00;99.90;;;;;;4867667;29;20202;-80
2023/11/14 13:47:42;;;;;;;5.07;3.60;;;12.00;99.90;;;;;;4878654;29;20236;-85
2023/11/14 13:50:15;;;;;;;4.53;3.70;;;12.00;99.90;;;;;;4877562;29;20212;-79
2023/11/14 13:52:42;;;;;;;4.63;3.30;;;11.90;99.90;;;;;;4873733;29;20218;-79
2023/11/14 13:55:09;;;;;;;4.47;3.60;;;12.00;99.90;;;;;;4867956;29;20273;-79
2023/11/14 13:57:43;;;;;;;4.13;3.60;;;12.00;99.90;;;;;;4866923;29;20221;-85
2023/11/14 14:00:14;;;;;;;5.30;3.93;;;11.90;99.90;;;;;;4870072;29;20213;-79
2023/11/14 14:02:41;;;;;;;4.13;3.77;;;11.90;99.90;;;;;;4873557;29;20206;-79
2023/11/14 14:05:10;;;;;;;5.57;4.03;;;11.90;99.90;;;;;;4865435;29;20233;-80
2023/11/14 14:07:37;;;;;;;4.57;4.07;;;11.80;99.90;;;;;;4871319;29;20241;-79
2023/11/14 14:10:05;;;;;;;6.60;6.00;;;11.80;99.90;;;;;;4873534;29;20223;-79
2023/11/14 14:12:32;;;;;;;4.63;4.23;;;11.80;99.90;;;;;;4867575;29;20209;-78
2023/11/14 14:14:59;;;;;;;5.97;5.57;;;11.70;99.90;;;;;;4869361;29;20670;-79
2023/11/14 14:17:26;;;;;;;7.83;7.33;;;11.70;99.90;;;;;;4869065;29;20228;-79
2023/11/14 14:19:55;;;;;;;4.20;4.00;;;11.60;99.90;;;;;;4866896;29;20204;-79
2023/11/14 14:22:25;;;;;;;5.93;5.40;;;11.60;99.90;;;;;;4866745;29;20743;-80
2023/11/14 14:24:52;;;;;;;6.97;5.73;;;11.50;99.90;;;;;;4867384;29;20264;-79
2023/11/14 14:27:19;;;;;;;7.33;6.83;;;11.40;99.90;;;;;;4876825;29;20230;-79
2023/11/14 14:29:48;;;;;;;4.80;4.10;;;11.40;99.90;;;;;;4883139;29;20204;-79
2023/11/14 14:32:14;;;;;;;6.63;5.90;;;11.30;99.90;;;;;;4877275;29;20239;-80
2023/11/14 14:34:42;;;;;;;4.20;2.83;;;11.20;99.90;;;;;;4880388;29;20203;-79
2023/11/14 14:37:09;;;;;;;4.50;2.67;;;11.20;99.90;;;;;;4865894;29;20656;-79
2023/11/14 14:39:40;;;;;;;2.90;2.60;;;11.20;99.90;;;;;;4866671;29;20214;-79
2023/11/14 14:42:07;;;;;;;3.40;3.10;;;11.20;99.90;;;;;;4866082;29;20234;-80
2023/11/14 14:44:40;;;;;;;3.23;2.93;;;11.10;99.90;;;;;;4865984;29;20209;-79
2023/11/14 14:47:06;;;;;;;5.20;4.80;;;11.00;99.90;;;;;;4870682;29;20255;-79